Terminal Aerodrome Forecast
Issued by NWS Knoxville/Tri Cities, TN

Home | Current Version | Previous Version | Text Only | Print | Product List | Glossary On
Versions: 1 2 3 4 5 6 7 8 9 10 11 12 13 14
000
FTUS44 KMRX 230932 AAA
TAFTRI
TAF AMD
KTRI 230932Z 2310/2406 29004KT P6SM SKC
     FM231600 29010KT P6SM FEW150
     FM240100 00000KT P6SM FEW200=

USA.gov is the U.S. government's official web portal to all federal, state and local government web resources and services.